createdAt,value
2018-06-28T00:00:28.065Z,90.69
2018-06-28T00:02:57.499Z,90.96
2018-06-28T00:05:26.976Z,90.10
2018-06-28T00:07:56.575Z,89.79
2018-06-28T00:10:25.977Z,89.85
2018-06-28T00:12:55.425Z,89.81
2018-06-28T00:15:24.896Z,90.63
2018-06-28T00:17:54.316Z,90.48
2018-06-28T00:20:23.735Z,90.53
2018-06-28T00:22:53.119Z,91.00
2018-06-28T00:25:22.548Z,90.86
2018-06-28T00:27:52.071Z,90.77
2018-06-28T00:30:21.655Z,90.58
2018-06-28T00:32:51.073Z,89.75
2018-06-28T00:35:20.577Z,90.29
2018-06-28T00:37:49.964Z,90.02
2018-06-28T00:40:19.372Z,90.46
2018-06-28T00:42:48.803Z,90.16
2018-06-28T00:45:18.322Z,91.01
2018-06-28T00:47:47.664Z,90.90
2018-06-28T00:50:17.401Z,90.77
2018-06-28T00:52:46.872Z,90.41
2018-06-28T00:55:16.814Z,90.26
2018-06-28T00:57:46.544Z,90.12
2018-06-28T01:00:16.008Z,90.20
2018-06-28T01:02:45.448Z,90.36
2018-06-28T01:05:16.088Z,90.42
2018-06-28T01:07:45.470Z,90.47
2018-06-28T01:10:15.898Z,90.04
2018-06-28T01:12:45.309Z,90.30
2018-06-28T01:15:14.725Z,90.29
2018-06-28T01:17:44.150Z,90.30
2018-06-28T01:20:13.684Z,90.76
2018-06-28T01:22:43.089Z,90.12
2018-06-28T01:25:12.503Z,90.74
2018-06-28T01:27:41.835Z,90.70
2018-06-28T01:30:12.202Z,90.65
2018-06-28T01:32:41.610Z,90.73
2018-06-28T01:35:11.926Z,90.42
2018-06-28T01:37:41.347Z,91.13
2018-06-28T01:40:10.772Z,91.52
2018-06-28T01:42:55.239Z,91.09
2018-06-28T01:45:25.041Z,91.06
2018-06-28T01:47:55.042Z,90.97
2018-06-28T01:50:24.463Z,91.09
2018-06-28T01:52:54.266Z,91.29
2018-06-28T01:55:23.816Z,91.06
2018-06-28T01:57:53.179Z,91.38
2018-06-28T02:00:22.923Z,91.09
2018-06-28T02:02:52.322Z,91.21
2018-06-28T02:05:21.707Z,91.04
2018-06-28T02:07:51.093Z,90.69
2018-06-28T02:10:20.678Z,90.88
2018-06-28T02:12:50.084Z,90.92
2018-06-28T02:15:19.597Z,91.46
2018-06-28T02:17:49.043Z,90.76
2018-06-28T02:20:18.437Z,91.27
2018-06-28T02:22:48.934Z,91.53
2018-06-28T02:25:18.514Z,91.16
2018-06-28T02:27:48.090Z,91.15
2018-06-28T02:30:17.598Z,91.46
2018-06-28T02:32:46.998Z,91.81
2018-06-28T02:35:16.755Z,91.80
2018-06-28T02:37:46.168Z,91.80
2018-06-28T02:40:15.572Z,91.62
2018-06-28T02:42:44.970Z,92.07
2018-06-28T02:45:15.354Z,91.88
2018-06-28T02:47:44.748Z,91.48
2018-06-28T02:50:14.181Z,91.46
2018-06-28T02:52:44.074Z,91.90
2018-06-28T02:55:13.499Z,92.11
2018-06-28T02:57:42.924Z,92.18
2018-06-28T03:00:15.856Z,91.72
2018-06-28T03:02:45.336Z,92.00
2018-06-28T03:05:15.111Z,91.85
2018-06-28T03:07:45.044Z,91.88
2018-06-28T03:10:14.425Z,92.53
2018-06-28T03:12:44.312Z,92.11
2018-06-28T03:15:14.099Z,92.32
2018-06-28T03:17:43.717Z,92.59
2018-06-28T03:20:13.114Z,92.85
2018-06-28T03:22:42.580Z,92.82
2018-06-28T03:25:11.980Z,92.83
2018-06-28T03:27:41.409Z,92.88
2018-06-28T03:30:10.786Z,92.96
2018-06-28T03:32:40.167Z,93.44
2018-06-28T03:35:09.714Z,93.97
2018-06-28T03:37:39.149Z,94.21
2018-06-28T03:40:09.434Z,93.78
2018-06-28T03:42:38.837Z,94.15
2018-06-28T03:45:14.973Z,93.99
2018-06-28T03:47:44.379Z,94.25
2018-06-28T03:50:15.350Z,94.05
2018-06-28T03:52:44.812Z,93.43
2018-06-28T03:55:15.287Z,93.65
2018-06-28T03:57:44.686Z,93.25
2018-06-28T04:00:15.936Z,93.51
2018-06-28T04:02:45.316Z,93.44
2018-06-28T04:05:15.451Z,93.58
2018-06-28T04:07:44.890Z,93.23
2018-06-28T04:10:14.285Z,92.94
2018-06-28T04:12:43.620Z,93.13
2018-06-28T04:15:13.311Z,92.68
2018-06-28T04:17:42.798Z,91.84
2018-06-28T04:20:12.263Z,91.92
2018-06-28T04:22:41.649Z,92.07
2018-06-28T04:25:11.673Z,91.82
2018-06-28T04:27:41.063Z,92.19
2018-06-28T04:30:10.464Z,92.56
2018-06-28T04:32:39.842Z,92.47
2018-06-28T04:35:09.283Z,92.98
2018-06-28T04:37:38.677Z,92.68
2018-06-28T04:40:11.292Z,93.58
2018-06-28T04:42:40.628Z,93.95
2018-06-28T04:45:10.057Z,93.86
2018-06-28T04:47:39.411Z,94.18
2018-06-28T04:50:13.682Z,94.08
2018-06-28T04:52:43.061Z,93.70
2018-06-28T04:55:12.604Z,93.48
2018-06-28T04:57:42.000Z,92.93
2018-06-28T05:00:11.428Z,92.78
2018-06-28T05:02:40.808Z,92.50
2018-06-28T05:05:10.267Z,91.80
2018-06-28T05:07:39.656Z,91.65
2018-06-28T05:10:15.800Z,92.17
2018-06-28T05:12:45.148Z,92.01
2018-06-28T05:15:14.523Z,92.55
2018-06-28T05:17:43.866Z,92.38
2018-06-28T05:20:13.360Z,92.92
2018-06-28T05:22:42.752Z,92.60
2018-06-28T05:25:26.712Z,93.43
2018-06-28T05:27:56.259Z,93.09
2018-06-28T05:30:26.284Z,93.53
2018-06-28T05:32:55.870Z,93.06
2018-06-28T05:35:26.309Z,93.36
2018-06-28T05:37:55.700Z,92.90
2018-06-28T05:40:26.738Z,93.28
2018-06-28T05:42:56.165Z,92.74
2018-06-28T05:45:25.844Z,92.70
2018-06-28T05:47:55.177Z,92.84
2018-06-28T05:50:24.578Z,92.93
2018-06-28T05:52:53.964Z,92.76
2018-06-28T05:55:23.361Z,92.30
2018-06-28T05:57:54.508Z,92.37
2018-06-28T06:00:23.905Z,92.24
2018-06-28T06:02:53.268Z,91.94
2018-06-28T06:05:23.772Z,91.69
2018-06-28T06:07:53.244Z,91.53
2018-06-28T06:10:23.017Z,91.46
2018-06-28T06:12:52.590Z,91.04
2018-06-28T06:15:22.709Z,91.29
2018-06-28T06:17:52.112Z,90.95
2018-06-28T06:20:24.785Z,91.47
2018-06-28T06:22:54.371Z,90.90
2018-06-28T06:25:24.057Z,91.45
2018-06-28T06:27:53.530Z,91.02
2018-06-28T06:30:22.996Z,91.31
2018-06-28T06:32:53.017Z,91.31
2018-06-28T06:35:22.424Z,91.62
2018-06-28T06:37:51.779Z,90.93
2018-06-28T06:40:21.232Z,90.74
2018-06-28T06:42:50.609Z,91.49
2018-06-28T06:45:20.032Z,90.81
2018-06-28T06:47:49.663Z,90.45
2018-06-28T06:50:19.045Z,90.81
2018-06-28T06:52:48.607Z,90.63
2018-06-28T06:55:18.024Z,91.13
2018-06-28T06:57:47.440Z,91.24
2018-06-28T07:00:16.845Z,90.83
2018-06-28T07:02:46.273Z,90.73
2018-06-28T07:05:15.698Z,90.48
2018-06-28T07:07:45.089Z,90.50
2018-06-28T07:10:14.546Z,90.57
2018-06-28T07:12:44.186Z,90.14
2018-06-28T07:15:13.621Z,90.54
2018-06-28T07:17:43.229Z,90.19
2018-06-28T07:20:12.605Z,90.67
2018-06-28T07:22:42.207Z,90.42
2018-06-28T07:25:11.761Z,90.73
2018-06-28T07:27:41.285Z,90.33
2018-06-28T07:30:10.649Z,90.49
2018-06-28T07:32:40.015Z,90.65
2018-06-28T07:35:11.052Z,90.53
2018-06-28T07:37:40.448Z,90.11
2018-06-28T07:40:09.964Z,90.06
2018-06-28T07:42:39.469Z,90.59
2018-06-28T07:45:09.219Z,90.50
2018-06-28T07:47:38.658Z,90.74
2018-06-28T07:50:09.466Z,91.09
2018-06-28T07:52:38.840Z,90.83
2018-06-28T07:55:13.634Z,91.37
2018-06-28T07:57:43.192Z,90.92
2018-06-28T08:00:12.621Z,90.72
2018-06-28T08:02:42.077Z,90.89
2018-06-28T08:05:12.169Z,90.26
2018-06-28T08:07:41.524Z,90.41
2018-06-28T08:10:11.057Z,90.73
2018-06-28T08:12:40.436Z,90.35
2018-06-28T08:15:10.209Z,90.58
2018-06-28T08:17:40.288Z,90.07
2018-06-28T08:20:09.728Z,90.32
2018-06-28T08:22:39.168Z,89.87
2018-06-28T08:25:08.542Z,89.66
2018-06-28T08:27:37.953Z,90.19
2018-06-28T08:30:07.456Z,89.63
2018-06-28T08:32:36.873Z,89.82
2018-06-28T08:35:09.578Z,89.18
2018-06-28T08:37:38.846Z,88.65
2018-06-28T08:40:08.296Z,88.58
2018-06-28T08:42:37.738Z,87.84
2018-06-28T08:45:07.290Z,88.32
2018-06-28T08:47:36.693Z,88.27
2018-06-28T08:50:06.667Z,88.35
2018-06-28T08:52:36.071Z,88.09
2018-06-28T08:55:07.054Z,88.59
2018-06-28T08:57:36.551Z,88.06
2018-06-28T09:00:08.130Z,87.63
2018-06-28T09:02:37.482Z,88.07
2018-06-28T09:05:07.184Z,87.56
2018-06-28T09:07:37.054Z,86.30
2018-06-28T09:10:06.675Z,86.85
2018-06-28T09:12:36.107Z,87.58
2018-06-28T09:15:06.033Z,86.50
2018-06-28T09:17:35.423Z,87.54
2018-06-28T09:20:05.572Z,86.98
2018-06-28T09:22:35.834Z,86.91
2018-06-28T09:25:06.396Z,87.02
2018-06-28T09:27:36.115Z,87.20
2018-06-28T09:30:06.539Z,86.64
2018-06-28T09:32:36.018Z,86.04
2018-06-28T09:35:05.760Z,86.33
2018-06-28T09:37:35.083Z,86.15
2018-06-28T09:40:05.081Z,86.26
2018-06-28T09:42:34.720Z,85.69
2018-06-28T09:45:04.863Z,86.26
2018-06-28T09:47:34.390Z,85.92
2018-06-28T09:50:04.260Z,85.83
2018-06-28T09:52:33.647Z,85.33
2018-06-28T09:55:03.156Z,85.17
2018-06-28T09:57:32.880Z,84.56
2018-06-28T10:00:02.278Z,83.86
2018-06-28T10:02:31.699Z,83.01
2018-06-28T10:05:01.136Z,82.86
2018-06-28T10:07:30.568Z,81.92
2018-06-28T10:09:59.952Z,82.18
2018-06-28T10:12:29.384Z,82.18
2018-06-28T10:14:59.172Z,82.15
2018-06-28T10:17:28.612Z,81.69
2018-06-28T10:19:58.000Z,80.82
2018-06-28T10:22:28.524Z,81.01
2018-06-28T10:24:57.951Z,81.43
2018-06-28T10:27:27.548Z,80.62
2018-06-28T10:29:56.979Z,81.23
2018-06-28T10:32:26.343Z,80.75
2018-06-28T10:34:55.728Z,80.63
2018-06-28T10:37:25.130Z,80.40
2018-06-28T10:39:54.556Z,80.09
2018-06-28T10:42:23.988Z,80.93
2018-06-28T10:44:53.361Z,80.38
2018-06-28T10:47:22.807Z,80.61
2018-06-28T10:49:52.160Z,79.84
2018-06-28T10:52:21.575Z,80.01
2018-06-28T10:54:51.054Z,79.53
2018-06-28T10:57:20.968Z,79.26
2018-06-28T10:59:50.329Z,79.41
2018-06-28T11:02:19.754Z,78.24
2018-06-28T11:04:49.280Z,78.47
2018-06-28T11:07:18.750Z,78.25
2018-06-28T11:09:48.260Z,77.90
2018-06-28T11:12:17.672Z,76.82
2018-06-28T11:14:47.260Z,76.59
2018-06-28T11:17:17.209Z,76.33
2018-06-28T11:19:46.608Z,76.61
2018-06-28T11:22:15.988Z,75.56
2018-06-28T11:24:45.396Z,76.18
2018-06-28T11:27:14.822Z,75.96
2018-06-28T11:29:46.905Z,75.22
2018-06-28T11:32:16.419Z,75.14
2018-06-28T11:34:45.792Z,74.48
2018-06-28T11:37:15.164Z,75.22
2018-06-28T11:39:44.591Z,74.40
2018-06-28T11:42:13.946Z,73.36
2018-06-28T11:44:43.312Z,73.49
2018-06-28T11:47:12.690Z,73.10
2018-06-28T11:49:42.040Z,73.54
2018-06-28T11:52:11.820Z,73.21
2018-06-28T11:54:41.366Z,74.04
2018-06-28T11:57:10.699Z,74.52
2018-06-28T11:59:40.061Z,74.89
2018-06-28T12:02:09.477Z,74.91
2018-06-28T12:04:38.848Z,74.47
2018-06-28T12:07:08.201Z,73.62
2018-06-28T12:09:37.581Z,73.74
2018-06-28T12:12:06.959Z,73.68
2018-06-28T12:14:36.296Z,73.81
2018-06-28T12:17:05.671Z,74.08
2018-06-28T12:19:35.121Z,74.23
2018-06-28T12:22:04.536Z,74.74
2018-06-28T12:24:33.941Z,74.57
2018-06-28T12:27:03.406Z,74.61
2018-06-28T12:29:32.729Z,74.71
2018-06-28T12:32:02.474Z,73.73
2018-06-28T12:34:32.076Z,74.11
2018-06-28T12:37:01.424Z,73.25
2018-06-28T12:39:30.812Z,73.91
2018-06-28T12:42:00.203Z,72.89
2018-06-28T12:44:29.553Z,72.01
2018-06-28T12:47:34.908Z,71.56
2018-06-28T12:50:05.137Z,72.30
2018-06-28T12:52:47.608Z,75.60
2018-06-28T12:55:18.654Z,75.47
2018-06-28T12:57:48.988Z,76.41
2018-06-28T13:00:19.077Z,75.55
2018-06-28T13:02:48.487Z,75.65
2018-06-28T13:05:18.088Z,75.85
2018-06-28T13:07:47.432Z,75.74
2018-06-28T13:10:18.231Z,75.87
2018-06-28T13:12:47.634Z,74.52
2018-06-28T13:15:17.068Z,74.38
2018-06-28T13:17:46.508Z,74.40
2018-06-28T13:20:16.171Z,74.32
2018-06-28T13:22:45.727Z,74.02
2018-06-28T13:25:15.242Z,73.66
2018-06-28T13:27:44.655Z,74.10
2018-06-28T13:30:14.019Z,72.83
2018-06-28T13:32:43.662Z,73.47
2018-06-28T13:35:13.036Z,74.25
2018-06-28T13:37:42.424Z,74.64
2018-06-28T13:40:11.904Z,73.87
2018-06-28T13:42:41.276Z,73.90
2018-06-28T13:45:10.621Z,73.79
2018-06-28T13:47:40.016Z,73.93
2018-06-28T13:50:09.429Z,74.92
2018-06-28T13:52:38.877Z,74.85
2018-06-28T13:55:08.312Z,73.49
2018-06-28T13:57:37.771Z,73.82
2018-06-28T14:00:07.739Z,75.07
2018-06-28T14:02:37.439Z,73.46
2018-06-28T14:05:07.268Z,73.11
2018-06-28T14:07:37.429Z,72.50
2018-06-28T14:10:07.300Z,72.62
2018-06-28T14:12:37.032Z,72.37
2018-06-28T14:15:07.336Z,72.42
2018-06-28T14:17:37.756Z,71.97
2018-06-28T14:20:08.628Z,71.20
2018-06-28T14:22:38.111Z,70.64
2018-06-28T14:25:07.745Z,70.19
2018-06-28T14:27:37.107Z,68.97
2018-06-28T14:30:07.739Z,69.63
2018-06-28T14:32:37.440Z,69.71
2018-06-28T14:35:07.419Z,69.58
2018-06-28T14:37:37.090Z,68.53
2018-06-28T14:40:07.432Z,70.94
2018-06-28T14:42:36.840Z,72.12
2018-06-28T14:45:06.852Z,72.33
2018-06-28T14:47:36.818Z,71.71
2018-06-28T14:50:06.479Z,72.01
2018-06-28T14:52:36.350Z,72.55
2018-06-28T14:55:06.336Z,72.85
2018-06-28T14:57:35.969Z,73.13
2018-06-28T15:00:06.524Z,73.49
2018-06-28T15:02:35.874Z,72.88
2018-06-28T15:05:05.891Z,73.51
2018-06-28T15:07:35.293Z,72.69
2018-06-28T15:10:05.298Z,72.90
2018-06-28T15:12:34.670Z,72.18
2018-06-28T15:15:04.381Z,72.63
2018-06-28T15:17:34.115Z,73.71
2018-06-28T15:20:03.670Z,73.25
2018-06-28T15:22:33.034Z,72.30
2018-06-28T15:25:02.438Z,73.18
2018-06-28T15:27:31.921Z,73.45
2018-06-28T15:30:01.391Z,73.99
2018-06-28T15:32:30.740Z,74.30
2018-06-28T15:35:00.138Z,74.51
2018-06-28T15:37:29.484Z,75.25
2018-06-28T15:39:58.891Z,75.34
2018-06-28T15:42:28.532Z,75.25
2018-06-28T15:44:58.151Z,74.77
2018-06-28T15:47:28.684Z,74.81
2018-06-28T15:49:58.167Z,74.57
2018-06-28T15:52:27.977Z,75.54
2018-06-28T15:54:57.732Z,75.42
2018-06-28T15:57:27.216Z,75.61
2018-06-28T15:59:57.061Z,75.87
2018-06-28T16:02:26.650Z,75.92
2018-06-28T16:04:56.055Z,75.53
2018-06-28T16:07:25.389Z,75.73
2018-06-28T16:09:54.788Z,76.07
2018-06-28T16:12:24.218Z,76.59
2018-06-28T16:14:53.643Z,77.04
2018-06-28T16:17:23.154Z,77.06
2018-06-28T16:19:52.519Z,78.62
2018-06-28T16:22:23.035Z,80.40
2018-06-28T16:24:52.397Z,83.37
2018-06-28T16:27:21.736Z,84.17
2018-06-28T16:29:51.136Z,85.62
2018-06-28T16:32:20.568Z,86.44
2018-06-28T16:34:49.969Z,86.78
2018-06-28T16:37:19.431Z,86.89
2018-06-28T16:39:48.800Z,87.88
2018-06-28T16:42:18.215Z,88.47
2018-06-28T16:44:47.603Z,88.94
2018-06-28T16:47:16.988Z,89.44
2018-06-28T16:49:46.377Z,89.35
2018-06-28T16:52:15.989Z,89.64
2018-06-28T16:54:45.563Z,89.46
2018-06-28T16:57:14.929Z,89.50
2018-06-28T16:59:44.416Z,89.40
2018-06-28T17:02:14.147Z,89.55
2018-06-28T17:04:43.925Z,89.08
2018-06-28T17:07:13.354Z,89.56
2018-06-28T17:09:42.751Z,88.69
2018-06-28T17:12:12.255Z,89.51
2018-06-28T17:14:41.698Z,88.58
2018-06-28T17:17:11.287Z,88.60
2018-06-28T17:19:40.777Z,88.70
2018-06-28T17:22:10.173Z,89.24
2018-06-28T17:24:40.147Z,90.02
2018-06-28T17:27:09.641Z,90.46
2018-06-28T17:29:39.195Z,89.87
2018-06-28T17:32:08.719Z,89.62
2018-06-28T17:34:38.329Z,90.46
2018-06-28T17:37:07.872Z,90.37
2018-06-28T17:39:37.300Z,89.49
2018-06-28T17:42:06.722Z,89.96
2018-06-28T17:44:36.248Z,89.72
2018-06-28T17:47:05.763Z,89.26
2018-06-28T17:49:35.166Z,88.42
2018-06-28T17:52:04.801Z,88.75
2018-06-28T17:54:34.326Z,89.01
2018-06-28T17:57:04.005Z,89.22
2018-06-28T17:59:33.420Z,89.11
2018-06-28T18:02:02.801Z,88.80
2018-06-28T18:04:32.224Z,89.06
2018-06-28T18:07:01.655Z,89.81
2018-06-28T18:09:31.131Z,89.52
2018-06-28T18:12:00.510Z,89.49
2018-06-28T18:14:30.804Z,89.33
2018-06-28T18:17:00.259Z,89.85
2018-06-28T18:19:29.939Z,89.97
2018-06-28T18:21:59.332Z,88.99
2018-06-28T18:24:28.728Z,89.05
2018-06-28T18:26:58.190Z,88.83
2018-06-28T18:29:27.697Z,88.57
2018-06-28T18:31:57.473Z,89.32
2018-06-28T18:34:26.859Z,89.17
2018-06-28T18:36:56.274Z,89.13
2018-06-28T18:39:25.636Z,88.73
2018-06-28T18:41:55.013Z,89.11
2018-06-28T18:44:24.455Z,89.47
2018-06-28T18:46:55.261Z,89.69
2018-06-28T18:49:24.620Z,89.28
2018-06-28T18:51:54.018Z,89.57
2018-06-28T18:54:24.271Z,89.89
2018-06-28T18:56:53.691Z,89.69
2018-06-28T18:59:23.756Z,89.96
2018-06-28T19:01:53.311Z,89.98
2018-06-28T19:04:22.920Z,90.07
2018-06-28T19:06:52.378Z,89.90
2018-06-28T19:09:21.828Z,90.21
2018-06-28T19:11:51.255Z,89.97
2018-06-28T19:16:31.276Z,90.42
2018-06-28T19:19:01.369Z,89.94
2018-06-28T19:21:36.096Z,89.22
2018-06-28T19:24:05.909Z,89.24
2018-06-28T19:26:35.312Z,89.04
2018-06-28T19:29:09.943Z,88.77
2018-06-28T19:31:44.699Z,88.23
2018-06-28T19:34:14.062Z,88.62
2018-06-28T19:36:43.470Z,88.86
2018-06-28T19:39:18.080Z,88.68
2018-06-28T19:41:52.658Z,88.41
2018-06-28T19:44:22.092Z,88.54
2018-06-28T19:46:51.489Z,88.34
2018-06-28T19:49:26.067Z,88.80
2018-06-28T19:52:00.648Z,88.53
2018-06-28T19:54:30.081Z,88.72
2018-06-28T19:56:59.703Z,88.64
2018-06-28T19:59:29.264Z,88.15
2018-06-28T20:04:14.879Z,88.05
2018-06-28T20:06:44.891Z,88.36
2018-06-28T20:09:14.242Z,88.01
2018-06-28T20:11:43.659Z,88.05
2018-06-28T20:14:18.430Z,87.92
2018-06-28T20:16:53.142Z,88.22
2018-06-28T20:19:27.775Z,87.98
2018-06-28T20:21:57.184Z,88.30
2018-06-28T20:24:26.677Z,88.28
2018-06-28T20:27:01.493Z,87.92
2018-06-28T20:29:37.313Z,87.64
2018-06-28T20:32:12.415Z,87.90
2018-06-28T20:34:41.790Z,88.16
2018-06-28T20:37:12.169Z,87.90
2018-06-28T20:39:41.645Z,87.25
2018-06-28T20:42:11.059Z,87.46
2018-06-28T20:44:40.456Z,86.84
2018-06-28T20:47:09.903Z,86.43
2018-06-28T20:49:40.438Z,86.32
2018-06-28T20:52:09.818Z,86.64
2018-06-28T20:54:39.211Z,86.77
2018-06-28T20:57:08.904Z,86.58
2018-06-28T20:59:38.248Z,86.35
2018-06-28T21:02:09.491Z,86.26
2018-06-28T21:04:39.301Z,86.72
2018-06-28T21:07:09.161Z,86.21
2018-06-28T21:09:38.524Z,86.51
2018-06-28T21:12:07.887Z,85.98
2018-06-28T21:14:37.328Z,86.17
2018-06-28T21:17:07.137Z,86.48
2018-06-28T21:19:36.504Z,86.32
2018-06-28T21:22:06.133Z,86.20
2018-06-28T21:24:35.539Z,85.84
2018-06-28T21:27:05.124Z,86.23
2018-06-28T21:29:35.005Z,86.03
2018-06-28T21:32:04.371Z,85.85
2018-06-28T21:34:33.764Z,86.04
2018-06-28T21:37:03.254Z,86.21
2018-06-28T21:39:32.635Z,85.80
2018-06-28T21:42:02.032Z,85.88
2018-06-28T21:44:32.173Z,85.98
2018-06-28T21:47:01.722Z,85.60
2018-06-28T21:49:31.129Z,86.11
2018-06-28T21:52:00.684Z,85.87
2018-06-28T21:54:30.074Z,86.15
2018-06-28T21:56:59.405Z,86.33
2018-06-28T21:59:29.535Z,85.67
2018-06-28T22:01:58.927Z,86.12
2018-06-28T22:04:28.341Z,85.65
2018-06-28T22:06:57.740Z,85.81
2018-06-28T22:09:27.096Z,86.10
2018-06-28T22:11:56.454Z,85.54
2018-06-28T22:14:26.513Z,85.93
2018-06-28T22:16:56.085Z,85.93
2018-06-28T22:19:25.488Z,86.06
2018-06-28T22:21:55.220Z,85.95
2018-06-28T22:24:24.704Z,86.34
2018-06-28T22:26:54.301Z,86.02
2018-06-28T22:29:24.004Z,85.96
2018-06-28T22:31:53.364Z,85.98
2018-06-28T22:34:22.929Z,86.21
2018-06-28T22:36:52.316Z,86.22
2018-06-28T22:39:21.945Z,85.89
2018-06-28T22:41:51.430Z,86.55
2018-06-28T22:44:20.780Z,86.33
2018-06-28T22:46:50.121Z,86.51
2018-06-28T22:49:19.496Z,86.22
2018-06-28T22:51:49.812Z,86.31
2018-06-28T22:54:19.186Z,85.78
2018-06-28T22:56:48.539Z,85.59
2018-06-28T22:59:17.924Z,85.75
2018-06-28T23:01:47.396Z,85.30
2018-06-28T23:04:16.795Z,85.89
2018-06-28T23:06:46.192Z,85.47
2018-06-28T23:09:15.556Z,85.43
2018-06-28T23:11:44.903Z,85.54
2018-06-28T23:14:14.307Z,85.12
2018-06-28T23:16:43.734Z,84.99
2018-06-28T23:19:13.400Z,85.08
2018-06-28T23:21:42.996Z,84.88
2018-06-28T23:24:12.421Z,84.52
2018-06-28T23:26:41.788Z,84.79
2018-06-28T23:29:11.224Z,84.52
2018-06-28T23:31:40.859Z,84.91
2018-06-28T23:34:10.272Z,84.84
2018-06-28T23:36:39.648Z,84.92
2018-06-28T23:39:10.376Z,85.22
2018-06-28T23:41:39.801Z,84.66
2018-06-28T23:44:09.277Z,84.85
2018-06-28T23:46:38.685Z,85.18
2018-06-28T23:49:08.087Z,84.78
2018-06-28T23:51:37.434Z,85.11
2018-06-28T23:54:06.846Z,85.07
2018-06-28T23:56:36.208Z,85.36
2018-06-28T23:59:05.634Z,85.31
